sensor_id;sensor_type;location;lat;lon;timestamp;P1;durP1;ratioP1;P2;durP2;ratioP2
79487;SDS011;68949;53.176;18.088;2023-04-29T00:01:03;12.00;;;6.80;;
79487;SDS011;68949;53.176;18.088;2023-04-29T00:03:30;13.60;;;6.30;;
79487;SDS011;68949;53.176;18.088;2023-04-29T00:06:00;11.80;;;6.60;;
79487;SDS011;68949;53.176;18.088;2023-04-29T00:08:27;10.80;;;6.30;;
79487;SDS011;68949;53.176;18.088;2023-04-29T00:10:54;15.10;;;7.10;;
79487;SDS011;68949;53.176;18.088;2023-04-29T00:13:20;14.90;;;6.30;;
79487;SDS011;68949;53.176;18.088;2023-04-29T00:15:47;12.40;;;6.00;;
79487;SDS011;68949;53.176;18.088;2023-04-29T00:18:14;10.70;;;5.20;;
79487;SDS011;68949;53.176;18.088;2023-04-29T00:20:41;13.30;;;5.90;;
79487;SDS011;68949;53.176;18.088;2023-04-29T00:23:08;15.80;;;7.30;;
79487;SDS011;68949;53.176;18.088;2023-04-29T00:25:35;14.10;;;6.50;;
79487;SDS011;68949;53.176;18.088;2023-04-29T00:28:04;14.00;;;6.80;;
79487;SDS011;68949;53.176;18.088;2023-04-29T00:30:31;12.50;;;6.00;;
79487;SDS011;68949;53.176;18.088;2023-04-29T00:32:59;13.30;;;6.90;;
79487;SDS011;68949;53.176;18.088;2023-04-29T00:35:26;14.10;;;7.00;;
79487;SDS011;68949;53.176;18.088;2023-04-29T00:37:53;19.00;;;7.50;;
79487;SDS011;68949;53.176;18.088;2023-04-29T00:40:20;13.50;;;6.50;;
79487;SDS011;68949;53.176;18.088;2023-04-29T00:42:46;13.60;;;6.20;;
79487;SDS011;68949;53.176;18.088;2023-04-29T00:45:13;12.70;;;6.90;;
79487;SDS011;68949;53.176;18.088;2023-04-29T00:47:40;13.70;;;7.00;;
79487;SDS011;68949;53.176;18.088;2023-04-29T00:50:07;13.10;;;7.10;;
79487;SDS011;68949;53.176;18.088;2023-04-29T00:52:36;14.60;;;6.70;;
79487;SDS011;68949;53.176;18.088;2023-04-29T00:55:05;12.10;;;5.90;;
79487;SDS011;68949;53.176;18.088;2023-04-29T00:57:34;12.20;;;6.40;;
79487;SDS011;68949;53.176;18.088;2023-04-29T01:00:01;13.60;;;6.40;;
79487;SDS011;68949;53.176;18.088;2023-04-29T01:02:29;15.70;;;6.90;;
79487;SDS011;68949;53.176;18.088;2023-04-29T01:04:56;15.00;;;7.70;;
79487;SDS011;68949;53.176;18.088;2023-04-29T01:10:28;13.40;;;5.80;;
79487;SDS011;68949;53.176;18.088;2023-04-29T01:15:52;12.30;;;6.30;;
79487;SDS011;68949;53.176;18.088;2023-04-29T01:18:25;13.50;;;6.40;;
79487;SDS011;68949;53.176;18.088;2023-04-29T01:20:56;14.00;;;5.90;;
79487;SDS011;68949;53.176;18.088;2023-04-29T01:23:25;12.90;;;5.80;;
79487;SDS011;68949;53.176;18.088;2023-04-29T01:25:53;15.30;;;6.40;;
79487;SDS011;68949;53.176;18.088;2023-04-29T01:28:57;11.70;;;6.10;;
79487;SDS011;68949;53.176;18.088;2023-04-29T01:31:50;12.70;;;6.80;;
79487;SDS011;68949;53.176;18.088;2023-04-29T01:34:49;14.00;;;7.10;;
79487;SDS011;68949;53.176;18.088;2023-04-29T01:37:34;13.10;;;6.70;;
79487;SDS011;68949;53.176;18.088;2023-04-29T01:42:57;16.10;;;6.70;;
79487;SDS011;68949;53.176;18.088;2023-04-29T01:45:28;13.00;;;6.50;;
79487;SDS011;68949;53.176;18.088;2023-04-29T01:47:58;14.40;;;6.70;;
79487;SDS011;68949;53.176;18.088;2023-04-29T01:50:26;20.10;;;7.60;;
79487;SDS011;68949;53.176;18.088;2023-04-29T01:52:55;11.90;;;7.00;;
79487;SDS011;68949;53.176;18.088;2023-04-29T01:55:22;13.80;;;6.90;;
79487;SDS011;68949;53.176;18.088;2023-04-29T01:58:03;14.90;;;7.30;;
79487;SDS011;68949;53.176;18.088;2023-04-29T02:00:48;10.90;;;6.20;;
79487;SDS011;68949;53.176;18.088;2023-04-29T02:03:15;14.90;;;7.80;;
79487;SDS011;68949;53.176;18.088;2023-04-29T02:05:46;16.10;;;7.90;;
79487;SDS011;68949;53.176;18.088;2023-04-29T02:08:13;14.80;;;7.20;;
79487;SDS011;68949;53.176;18.088;2023-04-29T02:10:51;13.10;;;6.40;;
79487;SDS011;68949;53.176;18.088;2023-04-29T02:13:28;15.10;;;6.70;;
79487;SDS011;68949;53.176;18.088;2023-04-29T02:15:55;13.00;;;7.00;;
79487;SDS011;68949;53.176;18.088;2023-04-29T02:18:22;18.00;;;6.80;;
79487;SDS011;68949;53.176;18.088;2023-04-29T02:20:49;13.30;;;7.20;;
79487;SDS011;68949;53.176;18.088;2023-04-29T02:23:19;15.50;;;7.50;;
79487;SDS011;68949;53.176;18.088;2023-04-29T02:25:46;14.80;;;6.80;;
79487;SDS011;68949;53.176;18.088;2023-04-29T02:28:13;14.20;;;7.10;;
79487;SDS011;68949;53.176;18.088;2023-04-29T02:30:40;14.20;;;7.00;;
79487;SDS011;68949;53.176;18.088;2023-04-29T02:33:06;12.80;;;6.70;;
79487;SDS011;68949;53.176;18.088;2023-04-29T02:35:33;12.70;;;6.60;;
79487;SDS011;68949;53.176;18.088;2023-04-29T02:38:00;13.40;;;6.50;;
79487;SDS011;68949;53.176;18.088;2023-04-29T02:40:27;13.00;;;7.40;;
79487;SDS011;68949;53.176;18.088;2023-04-29T02:42:54;12.30;;;6.70;;
79487;SDS011;68949;53.176;18.088;2023-04-29T02:45:21;18.10;;;7.20;;
79487;SDS011;68949;53.176;18.088;2023-04-29T02:47:48;15.10;;;7.20;;
79487;SDS011;68949;53.176;18.088;2023-04-29T02:50:15;16.00;;;8.20;;
79487;SDS011;68949;53.176;18.088;2023-04-29T02:52:42;12.50;;;7.10;;
79487;SDS011;68949;53.176;18.088;2023-04-29T02:55:08;13.70;;;7.50;;
79487;SDS011;68949;53.176;18.088;2023-04-29T02:57:35;14.70;;;7.70;;
79487;SDS011;68949;53.176;18.088;2023-04-29T03:00:02;13.80;;;7.30;;
79487;SDS011;68949;53.176;18.088;2023-04-29T03:02:29;14.60;;;7.40;;
79487;SDS011;68949;53.176;18.088;2023-04-29T03:04:57;12.80;;;7.00;;
79487;SDS011;68949;53.176;18.088;2023-04-29T03:07:24;17.90;;;6.90;;
79487;SDS011;68949;53.176;18.088;2023-04-29T03:09:52;15.10;;;7.60;;
79487;SDS011;68949;53.176;18.088;2023-04-29T03:12:19;12.20;;;7.00;;
79487;SDS011;68949;53.176;18.088;2023-04-29T03:14:46;16.40;;;8.20;;
79487;SDS011;68949;53.176;18.088;2023-04-29T03:17:13;17.00;;;7.50;;
79487;SDS011;68949;53.176;18.088;2023-04-29T03:19:40;15.10;;;7.50;;
79487;SDS011;68949;53.176;18.088;2023-04-29T03:22:07;14.10;;;7.60;;
79487;SDS011;68949;53.176;18.088;2023-04-29T03:24:37;14.20;;;7.40;;
79487;SDS011;68949;53.176;18.088;2023-04-29T03:27:04;15.00;;;7.40;;
79487;SDS011;68949;53.176;18.088;2023-04-29T03:29:32;16.10;;;8.10;;
79487;SDS011;68949;53.176;18.088;2023-04-29T03:31:59;17.40;;;8.60;;
79487;SDS011;68949;53.176;18.088;2023-04-29T03:34:26;14.80;;;7.60;;
79487;SDS011;68949;53.176;18.088;2023-04-29T03:37:05;15.40;;;7.70;;
79487;SDS011;68949;53.176;18.088;2023-04-29T03:39:32;14.90;;;8.40;;
79487;SDS011;68949;53.176;18.088;2023-04-29T03:41:59;14.50;;;6.50;;
79487;SDS011;68949;53.176;18.088;2023-04-29T03:44:27;13.90;;;7.30;;
79487;SDS011;68949;53.176;18.088;2023-04-29T03:46:55;15.90;;;7.60;;
79487;SDS011;68949;53.176;18.088;2023-04-29T03:49:22;17.00;;;8.20;;
79487;SDS011;68949;53.176;18.088;2023-04-29T03:51:49;17.20;;;7.00;;
79487;SDS011;68949;53.176;18.088;2023-04-29T03:54:16;14.40;;;7.80;;
79487;SDS011;68949;53.176;18.088;2023-04-29T03:56:43;13.00;;;6.80;;
79487;SDS011;68949;53.176;18.088;2023-04-29T03:59:10;14.60;;;7.40;;
79487;SDS011;68949;53.176;18.088;2023-04-29T04:01:38;17.00;;;7.50;;
79487;SDS011;68949;53.176;18.088;2023-04-29T04:04:04;15.50;;;8.00;;
79487;SDS011;68949;53.176;18.088;2023-04-29T04:06:32;17.90;;;6.80;;
79487;SDS011;68949;53.176;18.088;2023-04-29T04:08:58;12.80;;;6.50;;
79487;SDS011;68949;53.176;18.088;2023-04-29T04:11:28;13.70;;;7.40;;
79487;SDS011;68949;53.176;18.088;2023-04-29T04:13:57;13.80;;;7.60;;
79487;SDS011;68949;53.176;18.088;2023-04-29T04:16:24;13.90;;;6.60;;
79487;SDS011;68949;53.176;18.088;2023-04-29T04:18:51;15.60;;;8.30;;
79487;SDS011;68949;53.176;18.088;2023-04-29T04:21:18;15.10;;;7.80;;
79487;SDS011;68949;53.176;18.088;2023-04-29T04:23:51;15.70;;;8.30;;
79487;SDS011;68949;53.176;18.088;2023-04-29T04:26:20;15.80;;;8.20;;
79487;SDS011;68949;53.176;18.088;2023-04-29T04:28:56;16.60;;;8.00;;
79487;SDS011;68949;53.176;18.088;2023-04-29T04:31:52;13.10;;;7.50;;
79487;SDS011;68949;53.176;18.088;2023-04-29T04:34:19;13.30;;;7.10;;
79487;SDS011;68949;53.176;18.088;2023-04-29T04:36:48;13.60;;;7.70;;
79487;SDS011;68949;53.176;18.088;2023-04-29T04:39:14;15.70;;;7.60;;
79487;SDS011;68949;53.176;18.088;2023-04-29T04:41:41;14.20;;;6.90;;
79487;SDS011;68949;53.176;18.088;2023-04-29T04:44:08;15.30;;;7.60;;
79487;SDS011;68949;53.176;18.088;2023-04-29T04:47:00;13.70;;;7.40;;
79487;SDS011;68949;53.176;18.088;2023-04-29T04:49:39;19.50;;;8.80;;
79487;SDS011;68949;53.176;18.088;2023-04-29T04:52:06;19.20;;;9.30;;
79487;SDS011;68949;53.176;18.088;2023-04-29T04:54:33;13.50;;;6.90;;
79487;SDS011;68949;53.176;18.088;2023-04-29T04:57:06;15.10;;;7.50;;
79487;SDS011;68949;53.176;18.088;2023-04-29T04:59:33;15.90;;;7.90;;
79487;SDS011;68949;53.176;18.088;2023-04-29T05:01:59;16.30;;;7.80;;
79487;SDS011;68949;53.176;18.088;2023-04-29T05:04:26;15.90;;;8.30;;
79487;SDS011;68949;53.176;18.088;2023-04-29T05:06:53;15.90;;;8.20;;
79487;SDS011;68949;53.176;18.088;2023-04-29T05:09:20;16.70;;;7.80;;
79487;SDS011;68949;53.176;18.088;2023-04-29T05:11:47;17.40;;;8.50;;
79487;SDS011;68949;53.176;18.088;2023-04-29T05:14:15;17.70;;;8.70;;
79487;SDS011;68949;53.176;18.088;2023-04-29T05:16:43;19.10;;;8.80;;
79487;SDS011;68949;53.176;18.088;2023-04-29T05:19:12;15.80;;;7.80;;
79487;SDS011;68949;53.176;18.088;2023-04-29T05:21:39;16.80;;;8.10;;
79487;SDS011;68949;53.176;18.088;2023-04-29T05:24:06;14.90;;;8.20;;
79487;SDS011;68949;53.176;18.088;2023-04-29T05:26:34;17.20;;;8.90;;
79487;SDS011;68949;53.176;18.088;2023-04-29T05:29:01;15.30;;;8.00;;
79487;SDS011;68949;53.176;18.088;2023-04-29T05:31:29;16.20;;;7.70;;
79487;SDS011;68949;53.176;18.088;2023-04-29T05:33:56;15.30;;;7.80;;
79487;SDS011;68949;53.176;18.088;2023-04-29T05:36:22;15.10;;;7.40;;
79487;SDS011;68949;53.176;18.088;2023-04-29T05:38:49;14.30;;;7.40;;
79487;SDS011;68949;53.176;18.088;2023-04-29T05:41:17;14.50;;;7.90;;
79487;SDS011;68949;53.176;18.088;2023-04-29T05:43:56;13.70;;;6.80;;
79487;SDS011;68949;53.176;18.088;2023-04-29T05:46:23;14.70;;;7.40;;
79487;SDS011;68949;53.176;18.088;2023-04-29T05:48:50;14.00;;;7.30;;
79487;SDS011;68949;53.176;18.088;2023-04-29T05:51:17;18.00;;;8.50;;
79487;SDS011;68949;53.176;18.088;2023-04-29T05:53:44;13.50;;;7.60;;
79487;SDS011;68949;53.176;18.088;2023-04-29T05:56:10;17.20;;;8.50;;
79487;SDS011;68949;53.176;18.088;2023-04-29T05:58:39;14.20;;;7.80;;
79487;SDS011;68949;53.176;18.088;2023-04-29T06:01:07;13.00;;;7.60;;
79487;SDS011;68949;53.176;18.088;2023-04-29T06:03:34;13.00;;;7.00;;
79487;SDS011;68949;53.176;18.088;2023-04-29T06:06:20;14.50;;;8.30;;
79487;SDS011;68949;53.176;18.088;2023-04-29T06:09:02;14.30;;;8.00;;
79487;SDS011;68949;53.176;18.088;2023-04-29T06:11:30;20.40;;;8.40;;
79487;SDS011;68949;53.176;18.088;2023-04-29T06:13:57;15.70;;;8.20;;
79487;SDS011;68949;53.176;18.088;2023-04-29T06:16:24;17.50;;;8.20;;
79487;SDS011;68949;53.176;18.088;2023-04-29T06:18:50;14.70;;;8.70;;
79487;SDS011;68949;53.176;18.088;2023-04-29T06:21:17;14.00;;;7.00;;
79487;SDS011;68949;53.176;18.088;2023-04-29T06:23:44;18.30;;;8.90;;
79487;SDS011;68949;53.176;18.088;2023-04-29T06:26:16;15.50;;;8.70;;
79487;SDS011;68949;53.176;18.088;2023-04-29T06:28:42;17.20;;;8.30;;
79487;SDS011;68949;53.176;18.088;2023-04-29T06:31:09;14.80;;;8.30;;
79487;SDS011;68949;53.176;18.088;2023-04-29T06:33:36;16.10;;;8.80;;
79487;SDS011;68949;53.176;18.088;2023-04-29T06:36:03;15.90;;;9.50;;
79487;SDS011;68949;53.176;18.088;2023-04-29T06:38:52;17.30;;;7.50;;
79487;SDS011;68949;53.176;18.088;2023-04-29T06:41:37;18.70;;;7.90;;
79487;SDS011;68949;53.176;18.088;2023-04-29T06:44:24;14.80;;;7.40;;
79487;SDS011;68949;53.176;18.088;2023-04-29T06:47:24;15.20;;;7.40;;
79487;SDS011;68949;53.176;18.088;2023-04-29T06:50:20;16.20;;;8.30;;
79487;SDS011;68949;53.176;18.088;2023-04-29T06:52:47;17.30;;;7.90;;
79487;SDS011;68949;53.176;18.088;2023-04-29T06:55:14;14.80;;;8.60;;
79487;SDS011;68949;53.176;18.088;2023-04-29T06:57:42;13.50;;;7.50;;
79487;SDS011;68949;53.176;18.088;2023-04-29T07:00:09;14.10;;;8.40;;
79487;SDS011;68949;53.176;18.088;2023-04-29T07:02:36;17.20;;;7.50;;
79487;SDS011;68949;53.176;18.088;2023-04-29T07:05:04;17.30;;;8.30;;
79487;SDS011;68949;53.176;18.088;2023-04-29T07:07:31;16.60;;;8.30;;
79487;SDS011;68949;53.176;18.088;2023-04-29T07:09:58;15.70;;;7.50;;
79487;SDS011;68949;53.176;18.088;2023-04-29T07:12:26;15.10;;;7.50;;
79487;SDS011;68949;53.176;18.088;2023-04-29T07:14:54;16.00;;;8.60;;
79487;SDS011;68949;53.176;18.088;2023-04-29T07:17:23;15.30;;;7.20;;
79487;SDS011;68949;53.176;18.088;2023-04-29T07:19:49;16.70;;;8.90;;
79487;SDS011;68949;53.176;18.088;2023-04-29T07:22:16;15.70;;;9.10;;
79487;SDS011;68949;53.176;18.088;2023-04-29T07:24:43;14.40;;;7.10;;
79487;SDS011;68949;53.176;18.088;2023-04-29T07:27:10;15.80;;;7.60;;
79487;SDS011;68949;53.176;18.088;2023-04-29T07:29:37;14.40;;;8.20;;
79487;SDS011;68949;53.176;18.088;2023-04-29T07:32:04;17.00;;;8.50;;
79487;SDS011;68949;53.176;18.088;2023-04-29T07:34:31;18.20;;;8.60;;
79487;SDS011;68949;53.176;18.088;2023-04-29T07:36:57;13.50;;;7.90;;
79487;SDS011;68949;53.176;18.088;2023-04-29T07:39:24;14.80;;;7.90;;
79487;SDS011;68949;53.176;18.088;2023-04-29T07:41:55;12.90;;;7.20;;
79487;SDS011;68949;53.176;18.088;2023-04-29T07:44:21;17.90;;;8.30;;
79487;SDS011;68949;53.176;18.088;2023-04-29T07:46:48;15.20;;;7.00;;
79487;SDS011;68949;53.176;18.088;2023-04-29T07:49:15;14.00;;;8.20;;
79487;SDS011;68949;53.176;18.088;2023-04-29T07:51:42;12.90;;;7.00;;
79487;SDS011;68949;53.176;18.088;2023-04-29T07:54:10;13.70;;;7.30;;
79487;SDS011;68949;53.176;18.088;2023-04-29T07:56:37;14.60;;;8.40;;
79487;SDS011;68949;53.176;18.088;2023-04-29T07:59:04;13.80;;;8.10;;
79487;SDS011;68949;53.176;18.088;2023-04-29T08:01:30;14.90;;;7.20;;
79487;SDS011;68949;53.176;18.088;2023-04-29T08:03:58;16.40;;;7.90;;
79487;SDS011;68949;53.176;18.088;2023-04-29T08:06:26;13.80;;;7.60;;
79487;SDS011;68949;53.176;18.088;2023-04-29T08:08:54;14.90;;;8.30;;
79487;SDS011;68949;53.176;18.088;2023-04-29T08:11:21;14.60;;;7.70;;
79487;SDS011;68949;53.176;18.088;2023-04-29T08:13:50;13.90;;;7.90;;
79487;SDS011;68949;53.176;18.088;2023-04-29T08:16:17;11.70;;;6.60;;
79487;SDS011;68949;53.176;18.088;2023-04-29T08:18:44;15.30;;;8.60;;
79487;SDS011;68949;53.176;18.088;2023-04-29T08:21:10;15.10;;;8.30;;
79487;SDS011;68949;53.176;18.088;2023-04-29T08:23:38;13.50;;;7.70;;
79487;SDS011;68949;53.176;18.088;2023-04-29T08:26:05;17.50;;;9.00;;
79487;SDS011;68949;53.176;18.088;2023-04-29T08:28:32;13.30;;;7.80;;
79487;SDS011;68949;53.176;18.088;2023-04-29T08:30:59;14.80;;;7.50;;
79487;SDS011;68949;53.176;18.088;2023-04-29T08:33:25;16.60;;;8.50;;
79487;SDS011;68949;53.176;18.088;2023-04-29T08:35:58;16.40;;;8.70;;
79487;SDS011;68949;53.176;18.088;2023-04-29T08:38:26;14.60;;;7.90;;
79487;SDS011;68949;53.176;18.088;2023-04-29T08:40:53;13.90;;;8.30;;
79487;SDS011;68949;53.176;18.088;2023-04-29T08:43:21;15.60;;;7.40;;
79487;SDS011;68949;53.176;18.088;2023-04-29T08:45:49;16.10;;;8.50;;
79487;SDS011;68949;53.176;18.088;2023-04-29T08:48:16;15.30;;;7.50;;
79487;SDS011;68949;53.176;18.088;2023-04-29T08:50:44;16.60;;;8.00;;
79487;SDS011;68949;53.176;18.088;2023-04-29T08:53:12;14.20;;;7.40;;
79487;SDS011;68949;53.176;18.088;2023-04-29T08:55:42;15.10;;;8.00;;
79487;SDS011;68949;53.176;18.088;2023-04-29T08:58:11;15.80;;;8.70;;
79487;SDS011;68949;53.176;18.088;2023-04-29T09:00:41;18.30;;;9.00;;
79487;SDS011;68949;53.176;18.088;2023-04-29T09:05:48;16.00;;;8.70;;
79487;SDS011;68949;53.176;18.088;2023-04-29T09:08:20;14.80;;;7.90;;
79487;SDS011;68949;53.176;18.088;2023-04-29T09:10:52;14.90;;;8.40;;
79487;SDS011;68949;53.176;18.088;2023-04-29T09:13:27;13.80;;;7.70;;
79487;SDS011;68949;53.176;18.088;2023-04-29T09:15:55;14.90;;;7.50;;
79487;SDS011;68949;53.176;18.088;2023-04-29T09:18:42;14.30;;;8.10;;
79487;SDS011;68949;53.176;18.088;2023-04-29T09:21:22;16.50;;;8.50;;
79487;SDS011;68949;53.176;18.088;2023-04-29T09:23:53;16.60;;;9.80;;
79487;SDS011;68949;53.176;18.088;2023-04-29T09:26:25;18.70;;;9.90;;
79487;SDS011;68949;53.176;18.088;2023-04-29T09:29:08;15.00;;;8.60;;
79487;SDS011;68949;53.176;18.088;2023-04-29T09:31:37;13.10;;;8.10;;
79487;SDS011;68949;53.176;18.088;2023-04-29T09:34:08;17.10;;;8.70;;
79487;SDS011;68949;53.176;18.088;2023-04-29T09:36:46;13.30;;;8.40;;
79487;SDS011;68949;53.176;18.088;2023-04-29T09:39:21;16.70;;;8.80;;
79487;SDS011;68949;53.176;18.088;2023-04-29T09:44:41;15.10;;;9.00;;
79487;SDS011;68949;53.176;18.088;2023-04-29T09:47:09;14.90;;;8.60;;
79487;SDS011;68949;53.176;18.088;2023-04-29T09:49:40;16.20;;;8.80;;
79487;SDS011;68949;53.176;18.088;2023-04-29T09:52:14;14.80;;;8.30;;
79487;SDS011;68949;53.176;18.088;2023-04-29T09:54:43;13.30;;;7.30;;
79487;SDS011;68949;53.176;18.088;2023-04-29T09:57:11;14.50;;;8.00;;
79487;SDS011;68949;53.176;18.088;2023-04-29T09:59:41;15.30;;;8.60;;
79487;SDS011;68949;53.176;18.088;2023-04-29T10:02:14;16.30;;;9.00;;
79487;SDS011;68949;53.176;18.088;2023-04-29T10:04:53;14.30;;;8.00;;
79487;SDS011;68949;53.176;18.088;2023-04-29T10:07:24;18.10;;;9.30;;
79487;SDS011;68949;53.176;18.088;2023-04-29T10:09:53;16.20;;;9.00;;
79487;SDS011;68949;53.176;18.088;2023-04-29T10:12:23;13.80;;;8.10;;
79487;SDS011;68949;53.176;18.088;2023-04-29T10:20:45;16.40;;;8.40;;
79487;SDS011;68949;53.176;18.088;2023-04-29T10:23:14;16.10;;;8.40;;
79487;SDS011;68949;53.176;18.088;2023-04-29T10:25:43;14.60;;;7.90;;
79487;SDS011;68949;53.176;18.088;2023-04-29T10:28:13;17.40;;;9.50;;
79487;SDS011;68949;53.176;18.088;2023-04-29T10:30:49;14.00;;;8.30;;
79487;SDS011;68949;53.176;18.088;2023-04-29T10:33:18;18.50;;;8.00;;
79487;SDS011;68949;53.176;18.088;2023-04-29T10:35:47;14.40;;;8.20;;
79487;SDS011;68949;53.176;18.088;2023-04-29T10:38:23;19.10;;;9.70;;
79487;SDS011;68949;53.176;18.088;2023-04-29T10:40:55;15.40;;;8.70;;
79487;SDS011;68949;53.176;18.088;2023-04-29T10:43:25;19.50;;;10.60;;
79487;SDS011;68949;53.176;18.088;2023-04-29T10:46:18;15.00;;;7.70;;
79487;SDS011;68949;53.176;18.088;2023-04-29T10:48:50;15.90;;;8.40;;
79487;SDS011;68949;53.176;18.088;2023-04-29T10:51:42;12.40;;;8.40;;
79487;SDS011;68949;53.176;18.088;2023-04-29T10:54:16;15.80;;;9.60;;
79487;SDS011;68949;53.176;18.088;2023-04-29T10:56:52;15.40;;;8.20;;
79487;SDS011;68949;53.176;18.088;2023-04-29T11:02:09;14.70;;;8.50;;
79487;SDS011;68949;53.176;18.088;2023-04-29T11:05:05;14.10;;;7.80;;
79487;SDS011;68949;53.176;18.088;2023-04-29T11:07:33;15.20;;;8.90;;
79487;SDS011;68949;53.176;18.088;2023-04-29T11:10:01;14.60;;;8.80;;
79487;SDS011;68949;53.176;18.088;2023-04-29T11:12:28;15.00;;;9.50;;
79487;SDS011;68949;53.176;18.088;2023-04-29T11:14:57;15.40;;;8.10;;
79487;SDS011;68949;53.176;18.088;2023-04-29T11:17:34;13.30;;;7.40;;
79487;SDS011;68949;53.176;18.088;2023-04-29T11:20:04;15.20;;;8.10;;
79487;SDS011;68949;53.176;18.088;2023-04-29T11:22:35;11.70;;;7.50;;
79487;SDS011;68949;53.176;18.088;2023-04-29T11:25:04;13.50;;;7.90;;
79487;SDS011;68949;53.176;18.088;2023-04-29T11:27:34;15.30;;;8.90;;
79487;SDS011;68949;53.176;18.088;2023-04-29T11:30:04;17.20;;;7.60;;
79487;SDS011;68949;53.176;18.088;2023-04-29T11:32:38;15.30;;;8.60;;
79487;SDS011;68949;53.176;18.088;2023-04-29T11:35:10;14.40;;;8.00;;
79487;SDS011;68949;53.176;18.088;2023-04-29T11:37:40;17.30;;;9.20;;
79487;SDS011;68949;53.176;18.088;2023-04-29T11:40:09;16.00;;;9.80;;
79487;SDS011;68949;53.176;18.088;2023-04-29T11:42:46;13.60;;;7.80;;
79487;SDS011;68949;53.176;18.088;2023-04-29T11:45:16;15.30;;;9.50;;
79487;SDS011;68949;53.176;18.088;2023-04-29T11:47:45;13.40;;;7.60;;
79487;SDS011;68949;53.176;18.088;2023-04-29T11:50:15;21.40;;;10.60;;
79487;SDS011;68949;53.176;18.088;2023-04-29T11:52:48;15.50;;;9.20;;
79487;SDS011;68949;53.176;18.088;2023-04-29T11:55:15;19.00;;;10.10;;
79487;SDS011;68949;53.176;18.088;2023-04-29T11:57:42;15.10;;;9.60;;
79487;SDS011;68949;53.176;18.088;2023-04-29T12:00:12;18.80;;;11.50;;
79487;SDS011;68949;53.176;18.088;2023-04-29T12:02:43;15.10;;;8.20;;
79487;SDS011;68949;53.176;18.088;2023-04-29T12:05:11;15.90;;;9.10;;
79487;SDS011;68949;53.176;18.088;2023-04-29T12:07:38;18.80;;;8.90;;
79487;SDS011;68949;53.176;18.088;2023-04-29T12:10:09;14.40;;;8.30;;
79487;SDS011;68949;53.176;18.088;2023-04-29T12:12:38;13.90;;;9.50;;
79487;SDS011;68949;53.176;18.088;2023-04-29T12:15:07;15.10;;;8.70;;
79487;SDS011;68949;53.176;18.088;2023-04-29T12:17:35;16.80;;;9.50;;
79487;SDS011;68949;53.176;18.088;2023-04-29T12:20:04;16.40;;;8.20;;
79487;SDS011;68949;53.176;18.088;2023-04-29T12:22:33;16.50;;;9.10;;
79487;SDS011;68949;53.176;18.088;2023-04-29T12:25:03;16.20;;;10.20;;
79487;SDS011;68949;53.176;18.088;2023-04-29T12:27:31;14.50;;;9.30;;
79487;SDS011;68949;53.176;18.088;2023-04-29T12:29:59;16.20;;;10.10;;
79487;SDS011;68949;53.176;18.088;2023-04-29T12:32:26;16.40;;;9.90;;
79487;SDS011;68949;53.176;18.088;2023-04-29T12:34:54;15.90;;;10.60;;
79487;SDS011;68949;53.176;18.088;2023-04-29T12:37:21;15.20;;;8.90;;
79487;SDS011;68949;53.176;18.088;2023-04-29T12:39:54;16.80;;;9.30;;
79487;SDS011;68949;53.176;18.088;2023-04-29T12:42:21;18.90;;;9.90;;
79487;SDS011;68949;53.176;18.088;2023-04-29T12:44:48;14.80;;;9.00;;
79487;SDS011;68949;53.176;18.088;2023-04-29T12:47:15;14.10;;;9.20;;
79487;SDS011;68949;53.176;18.088;2023-04-29T12:49:46;16.20;;;9.50;;
79487;SDS011;68949;53.176;18.088;2023-04-29T12:52:14;14.80;;;9.50;;
79487;SDS011;68949;53.176;18.088;2023-04-29T12:54:41;16.20;;;9.50;;
79487;SDS011;68949;53.176;18.088;2023-04-29T12:57:10;16.90;;;9.80;;
79487;SDS011;68949;53.176;18.088;2023-04-29T12:59:37;15.30;;;9.60;;
79487;SDS011;68949;53.176;18.088;2023-04-29T13:02:06;14.60;;;9.60;;
79487;SDS011;68949;53.176;18.088;2023-04-29T13:04:33;16.60;;;9.80;;
79487;SDS011;68949;53.176;18.088;2023-04-29T13:06:59;15.70;;;8.70;;
79487;SDS011;68949;53.176;18.088;2023-04-29T13:09:26;15.80;;;9.30;;
79487;SDS011;68949;53.176;18.088;2023-04-29T13:11:53;14.40;;;9.20;;
79487;SDS011;68949;53.176;18.088;2023-04-29T13:14:20;16.50;;;10.20;;
79487;SDS011;68949;53.176;18.088;2023-04-29T13:16:47;16.10;;;10.10;;
79487;SDS011;68949;53.176;18.088;2023-04-29T13:19:14;17.10;;;8.20;;
79487;SDS011;68949;53.176;18.088;2023-04-29T13:21:41;16.20;;;9.00;;
79487;SDS011;68949;53.176;18.088;2023-04-29T13:24:08;18.80;;;8.90;;
79487;SDS011;68949;53.176;18.088;2023-04-29T13:26:35;14.90;;;8.50;;
79487;SDS011;68949;53.176;18.088;2023-04-29T13:29:03;16.90;;;8.40;;
79487;SDS011;68949;53.176;18.088;2023-04-29T13:31:30;12.90;;;8.00;;
79487;SDS011;68949;53.176;18.088;2023-04-29T13:33:57;14.10;;;8.30;;
79487;SDS011;68949;53.176;18.088;2023-04-29T13:36:23;14.10;;;8.20;;
79487;SDS011;68949;53.176;18.088;2023-04-29T13:38:50;13.80;;;9.50;;
79487;SDS011;68949;53.176;18.088;2023-04-29T13:41:17;16.20;;;9.60;;
79487;SDS011;68949;53.176;18.088;2023-04-29T13:43:43;12.40;;;7.20;;
79487;SDS011;68949;53.176;18.088;2023-04-29T13:46:10;13.30;;;7.80;;
79487;SDS011;68949;53.176;18.088;2023-04-29T13:48:37;14.90;;;8.30;;
79487;SDS011;68949;53.176;18.088;2023-04-29T13:51:03;12.40;;;8.70;;
79487;SDS011;68949;53.176;18.088;2023-04-29T13:53:30;15.40;;;8.20;;
79487;SDS011;68949;53.176;18.088;2023-04-29T13:55:58;13.40;;;8.40;;
79487;SDS011;68949;53.176;18.088;2023-04-29T13:58:25;13.60;;;8.00;;
79487;SDS011;68949;53.176;18.088;2023-04-29T14:00:52;14.40;;;7.10;;
79487;SDS011;68949;53.176;18.088;2023-04-29T14:03:18;13.80;;;8.20;;
79487;SDS011;68949;53.176;18.088;2023-04-29T14:05:45;13.20;;;7.50;;
79487;SDS011;68949;53.176;18.088;2023-04-29T14:08:11;12.30;;;7.20;;
79487;SDS011;68949;53.176;18.088;2023-04-29T14:10:39;11.60;;;7.00;;
79487;SDS011;68949;53.176;18.088;2023-04-29T14:13:06;15.20;;;8.50;;
79487;SDS011;68949;53.176;18.088;2023-04-29T14:15:33;13.00;;;7.80;;
79487;SDS011;68949;53.176;18.088;2023-04-29T14:18:00;16.30;;;7.80;;
79487;SDS011;68949;53.176;18.088;2023-04-29T14:20:27;12.70;;;8.70;;
79487;SDS011;68949;53.176;18.088;2023-04-29T14:22:53;13.90;;;8.30;;
79487;SDS011;68949;53.176;18.088;2023-04-29T14:25:20;13.90;;;8.80;;
79487;SDS011;68949;53.176;18.088;2023-04-29T14:27:47;12.60;;;8.60;;
79487;SDS011;68949;53.176;18.088;2023-04-29T14:30:14;13.40;;;8.80;;
79487;SDS011;68949;53.176;18.088;2023-04-29T14:32:41;13.20;;;8.50;;
79487;SDS011;68949;53.176;18.088;2023-04-29T14:35:08;12.40;;;8.50;;
79487;SDS011;68949;53.176;18.088;2023-04-29T14:37:35;12.00;;;7.80;;
79487;SDS011;68949;53.176;18.088;2023-04-29T14:40:02;11.80;;;7.80;;
79487;SDS011;68949;53.176;18.088;2023-04-29T14:42:29;11.00;;;7.80;;
79487;SDS011;68949;53.176;18.088;2023-04-29T14:44:56;13.90;;;7.80;;
79487;SDS011;68949;53.176;18.088;2023-04-29T14:47:23;12.00;;;7.80;;
79487;SDS011;68949;53.176;18.088;2023-04-29T14:49:49;13.50;;;8.20;;
79487;SDS011;68949;53.176;18.088;2023-04-29T14:52:16;13.10;;;8.00;;
79487;SDS011;68949;53.176;18.088;2023-04-29T14:54:43;13.90;;;8.20;;
79487;SDS011;68949;53.176;18.088;2023-04-29T14:57:10;14.70;;;8.00;;